Time;durP1;ratioP1;P1;durP2;ratioP2;P2;SDS_P1;SDS_P2;PMS_P1;PMS_P2;Temp;Humidity;BMP_temperature;BMP_pressure;BME280_temperature;BME280_humidity;BME280_pressure;Samples;Min_cycle;Max_cycle;Signal;HPM_P1;HPM_P2
2021/07/11 00:02:23;;;;;;;21.13;16.80;;;16.70;99.90;;;;;;5012632;28;20454;-67
2021/07/11 00:04:50;;;;;;;23.03;16.10;;;16.70;99.90;;;;;;5013177;28;20468;-67
2021/07/11 00:07:17;;;;;;;23.93;15.23;;;16.70;99.90;;;;;;5013219;28;20826;-66
2021/07/11 00:09:44;;;;;;;24.67;15.90;;;16.70;99.90;;;;;;5013039;28;20454;-66
2021/07/11 00:12:12;;;;;;;19.30;15.00;;;16.70;99.90;;;;;;5012492;28;20465;-66
2021/07/11 00:14:39;;;;;;;23.77;15.40;;;16.70;99.90;;;;;;4993387;28;20442;-66
2021/07/11 00:17:05;;;;;;;23.23;15.87;;;16.70;99.90;;;;;;4993541;28;20824;-66
2021/07/11 00:19:32;;;;;;;22.30;18.80;;;16.70;99.90;;;;;;4993401;28;20442;-66
2021/07/11 00:21:59;;;;;;;19.57;14.40;;;16.70;99.90;;;;;;4993064;28;20442;-66
2021/07/11 00:24:25;;;;;;;22.53;15.57;;;16.70;99.90;;;;;;4993659;28;20443;-67
2021/07/11 00:26:52;;;;;;;27.63;16.30;;;16.70;99.90;;;;;;5013256;28;20442;-73
2021/07/11 00:29:20;;;;;;;20.40;15.00;;;16.70;99.90;;;;;;5012566;28;20449;-66
2021/07/11 00:31:47;;;;;;;27.40;16.23;;;16.80;99.90;;;;;;5012623;28;20441;-66
2021/07/11 00:34:14;;;;;;;23.50;15.53;;;16.80;99.90;;;;;;5012619;28;20488;-66
2021/07/11 00:36:40;;;;;;;20.47;15.10;;;16.80;99.90;;;;;;5008383;28;20905;-66
2021/07/11 00:39:07;;;;;;;23.17;14.97;;;16.80;99.90;;;;;;4992947;28;20443;-66
2021/07/11 00:41:38;;;;;;;21.57;15.97;;;16.80;99.90;;;;;;4992795;28;20781;-66
2021/07/11 00:44:05;;;;;;;24.63;16.07;;;16.80;99.90;;;;;;4993311;28;20454;-66
2021/07/11 00:46:33;;;;;;;25.50;15.90;;;16.80;99.90;;;;;;4993016;28;20471;-66
2021/07/11 00:49:00;;;;;;;25.67;17.30;;;16.80;99.90;;;;;;4992892;28;20987;-66
2021/07/11 00:51:26;;;;;;;22.63;16.10;;;16.90;99.90;;;;;;4992597;28;20494;-67
2021/07/11 00:53:54;;;;;;;24.13;16.07;;;16.90;99.90;;;;;;4992578;28;20487;-67
2021/07/11 00:56:21;;;;;;;24.10;17.30;;;16.90;99.90;;;;;;5010911;28;20525;-66
2021/07/11 00:58:48;;;;;;;19.70;15.93;;;16.90;99.90;;;;;;5012394;28;20449;-66
2021/07/11 01:01:19;;;;;;;19.47;17.57;;;16.90;99.90;;;;;;5012144;28;20473;-66
2021/07/11 01:03:51;;;;;;;20.20;15.03;;;16.90;99.90;;;;;;5012259;28;20824;-66
2021/07/11 01:06:19;;;;;;;21.03;17.03;;;16.90;99.90;;;;;;5011121;28;20477;-67
2021/07/11 01:08:54;;;;;;;27.23;17.57;;;17.00;99.90;;;;;;4992310;28;20454;-66
2021/07/11 01:11:24;;;;;;;20.10;17.00;;;17.00;99.90;;;;;;4992380;28;20453;-66
2021/07/11 01:13:53;;;;;;;20.20;15.77;;;17.00;99.90;;;;;;4992261;28;21015;-66
2021/07/11 01:16:26;;;;;;;20.73;17.33;;;17.10;99.90;;;;;;4992470;28;20467;-66
2021/07/11 01:18:56;;;;;;;20.20;14.37;;;17.10;99.90;;;;;;4992409;28;20443;-66
2021/07/11 01:21:25;;;;;;;19.67;14.10;;;17.10;99.90;;;;;;4992421;28;20443;-66
2021/07/11 01:23:58;;;;;;;21.07;16.33;;;17.20;99.90;;;;;;4992421;28;20443;-66
2021/07/11 01:26:28;;;;;;;31.73;20.50;;;17.20;99.90;;;;;;4992127;28;20475;-66
2021/07/11 01:28:57;;;;;;;24.60;16.47;;;17.20;99.90;;;;;;4992203;28;20455;-66
2021/07/11 01:31:26;;;;;;;23.83;19.53;;;17.20;99.90;;;;;;4992382;28;20964;-66
2021/07/11 01:33:54;;;;;;;18.43;15.17;;;17.20;99.90;;;;;;4992105;28;20486;-66
2021/07/11 01:36:22;;;;;;;23.60;15.97;;;17.20;99.90;;;;;;4992728;28;20462;-66
2021/07/11 01:38:50;;;;;;;19.50;17.33;;;17.20;99.90;;;;;;4993078;28;20462;-66
2021/07/11 01:41:18;;;;;;;22.07;19.03;;;17.20;99.90;;;;;;4991620;28;20453;-65
2021/07/11 01:43:51;;;;;;;26.37;19.60;;;17.10;99.90;;;;;;4992264;28;20450;-66
2021/07/11 01:46:18;;;;;;;27.13;20.27;;;17.10;99.90;;;;;;4992162;28;20478;-66
2021/07/11 01:48:46;;;;;;;30.60;22.37;;;17.10;99.90;;;;;;4992225;28;20447;-66
2021/07/11 01:51:12;;;;;;;27.20;23.77;;;17.10;99.90;;;;;;4991928;28;20455;-66
2021/07/11 01:53:41;;;;;;;28.60;23.10;;;17.10;99.90;;;;;;4991865;28;20491;-66
2021/07/11 01:56:09;;;;;;;30.50;23.03;;;17.10;99.90;;;;;;4992143;28;20482;-66
2021/07/11 01:58:37;;;;;;;35.33;24.47;;;17.00;99.90;;;;;;4991974;28;20447;-66
2021/07/11 02:01:08;;;;;;;39.83;27.10;;;17.00;99.90;;;;;;4991979;28;20816;-66
2021/07/11 02:03:35;;;;;;;32.87;26.03;;;16.90;99.90;;;;;;4991823;28;20455;-66
2021/07/11 02:06:04;;;;;;;36.97;27.77;;;16.90;99.90;;;;;;4991867;28;20467;-66
2021/07/11 02:08:31;;;;;;;41.50;28.90;;;16.90;99.90;;;;;;4991774;28;20820;-66
2021/07/11 02:11:00;;;;;;;38.50;29.10;;;16.90;99.90;;;;;;4992087;28;20458;-66
2021/07/11 02:13:30;;;;;;;37.27;27.60;;;16.90;99.90;;;;;;4991462;28;20537;-66
2021/07/11 02:16:03;;;;;;;38.70;27.30;;;16.80;99.90;;;;;;4991920;28;20485;-66
2021/07/11 02:18:33;;;;;;;41.57;27.60;;;16.90;99.90;;;;;;4992007;28;20451;-66
2021/07/11 02:20:59;;;;;;;40.57;27.40;;;16.90;99.90;;;;;;4991440;28;20443;-66
2021/07/11 02:23:32;;;;;;;41.03;27.63;;;16.90;99.90;;;;;;4995036;28;20447;-66
2021/07/11 02:25:59;;;;;;;41.60;29.57;;;16.90;99.90;;;;;;4995384;28;20481;-66
2021/07/11 02:28:30;;;;;;;40.57;29.57;;;16.90;99.90;;;;;;4995474;28;20442;-66
2021/07/11 02:31:00;;;;;;;42.77;28.97;;;16.90;99.90;;;;;;5002085;28;20815;-66
2021/07/11 02:33:31;;;;;;;35.93;28.43;;;16.80;99.90;;;;;;5014801;28;20481;-66
2021/07/11 02:36:01;;;;;;;37.00;28.97;;;16.80;99.90;;;;;;5014860;28;20800;-67
2021/07/11 02:38:36;;;;;;;37.60;27.03;;;16.80;99.90;;;;;;5014780;28;20434;-66
2021/07/11 02:41:03;;;;;;;36.40;29.50;;;16.80;99.90;;;;;;5014738;28;20457;-66
2021/07/11 02:43:31;;;;;;;39.80;29.07;;;16.70;99.90;;;;;;5014337;28;20469;-66
2021/07/11 02:45:58;;;;;;;44.37;28.23;;;16.70;99.90;;;;;;5014856;28;20466;-66
2021/07/11 02:48:25;;;;;;;35.87;27.20;;;16.70;99.90;;;;;;4995134;28;20509;-66
2021/07/11 02:50:52;;;;;;;38.33;28.70;;;16.70;99.90;;;;;;4995067;28;20454;-66
2021/07/11 02:53:22;;;;;;;38.43;27.83;;;16.70;99.90;;;;;;5013488;28;20489;-66
2021/07/11 02:55:52;;;;;;;45.63;29.43;;;16.70;99.90;;;;;;5014532;28;20470;-66
2021/07/11 02:58:21;;;;;;;38.70;29.70;;;16.60;99.90;;;;;;5014782;28;20446;-66
2021/07/11 03:00:49;;;;;;;36.73;29.00;;;16.60;99.90;;;;;;5013895;28;20454;-66
2021/07/11 03:03:19;;;;;;;41.40;28.20;;;16.60;99.90;;;;;;4995840;28;20455;-66
2021/07/11 03:05:45;;;;;;;38.13;29.20;;;16.60;99.90;;;;;;4994620;28;20490;-66
2021/07/11 03:08:12;;;;;;;44.17;28.63;;;16.50;99.90;;;;;;4994607;28;20454;-66
2021/07/11 03:10:42;;;;;;;40.03;28.40;;;16.50;99.90;;;;;;4994655;28;20454;-66
2021/07/11 03:13:09;;;;;;;40.30;29.53;;;16.50;99.90;;;;;;4997261;28;20449;-66
2021/07/11 03:15:38;;;;;;;45.60;29.10;;;16.40;99.90;;;;;;5014062;28;20469;-66
2021/07/11 03:18:06;;;;;;;41.53;31.13;;;16.50;99.90;;;;;;5014065;28;20441;-66
2021/07/11 03:20:34;;;;;;;45.37;29.40;;;16.50;99.90;;;;;;5013916;28;20453;-66
2021/07/11 03:23:01;;;;;;;42.93;29.47;;;16.50;99.90;;;;;;5013762;28;20465;-66
2021/07/11 03:25:28;;;;;;;43.97;28.90;;;16.40;99.90;;;;;;5009490;28;20478;-66
2021/07/11 03:27:57;;;;;;;42.83;29.63;;;16.40;99.90;;;;;;4994385;28;20458;-66
2021/07/11 03:30:25;;;;;;;38.47;29.60;;;16.40;99.90;;;;;;4994401;28;20447;-66
2021/07/11 03:32:54;;;;;;;43.53;29.73;;;16.40;99.90;;;;;;4993581;28;20458;-66
2021/07/11 03:35:28;;;;;;;43.17;30.17;;;16.40;99.90;;;;;;4993999;28;20513;-66
2021/07/11 03:37:56;;;;;;;41.80;32.07;;;16.40;99.90;;;;;;5003730;28;20449;-66
2021/07/11 03:40:28;;;;;;;40.90;29.80;;;16.40;99.90;;;;;;5013665;28;20884;-66
2021/07/11 03:43:00;;;;;;;45.90;32.47;;;16.40;99.90;;;;;;5013104;28;20488;-66
2021/07/11 03:45:29;;;;;;;47.20;30.87;;;16.40;99.90;;;;;;5013470;28;20462;-66
2021/07/11 03:48:02;;;;;;;47.13;32.80;;;16.40;99.90;;;;;;5013388;28;20465;-66
2021/07/11 03:50:29;;;;;;;39.90;30.33;;;16.40;99.90;;;;;;4997605;28;20454;-65
2021/07/11 03:53:01;;;;;;;38.37;29.47;;;16.40;99.90;;;;;;4993638;28;20443;-66
2021/07/11 03:55:29;;;;;;;42.90;30.90;;;16.40;99.90;;;;;;4993732;28;20486;-66
2021/07/11 03:57:59;;;;;;;45.27;30.37;;;16.40;99.90;;;;;;4998324;28;20788;-66
2021/07/11 04:00:26;;;;;;;39.77;29.70;;;16.40;99.90;;;;;;4993588;28;20454;-66
2021/07/11 04:02:54;;;;;;;43.47;31.87;;;16.40;99.90;;;;;;4993522;28;20454;-66
2021/07/11 04:05:24;;;;;;;43.53;29.43;;;16.50;99.90;;;;;;4993729;28;20466;-66
2021/07/11 04:07:53;;;;;;;43.13;30.70;;;16.50;99.90;;;;;;5004810;28;20952;-66
2021/07/11 04:10:24;;;;;;;40.00;29.80;;;16.50;99.90;;;;;;5013174;28;20457;-66
2021/07/11 04:12:51;;;;;;;40.07;31.00;;;16.50;99.90;;;;;;5012932;28;20528;-67
2021/07/11 04:15:19;;;;;;;42.60;29.60;;;16.60;99.90;;;;;;5012463;28;20482;-66
2021/07/11 04:17:49;;;;;;;36.20;27.23;;;16.60;99.90;;;;;;5012017;28;20442;-66
2021/07/11 04:20:18;;;;;;;46.40;29.07;;;16.60;99.90;;;;;;5000101;28;20530;-66
2021/07/11 04:22:47;;;;;;;40.23;28.50;;;16.60;99.90;;;;;;4993328;28;20960;-67
2021/07/11 04:25:16;;;;;;;39.50;27.07;;;16.60;99.90;;;;;;4993129;28;20481;-66
2021/07/11 04:27:44;;;;;;;41.17;30.23;;;16.70;99.90;;;;;;4993383;28;20487;-66
2021/07/11 04:30:11;;;;;;;40.23;29.77;;;16.70;99.90;;;;;;4993344;28;20474;-66
2021/07/11 04:32:40;;;;;;;45.20;29.60;;;16.80;99.90;;;;;;5008191;28;20835;-66
2021/07/11 04:35:07;;;;;;;40.87;30.00;;;16.80;99.90;;;;;;5012633;28;20581;-66
2021/07/11 04:37:34;;;;;;;40.17;27.80;;;16.80;99.90;;;;;;5012736;28;20452;-66
2021/07/11 04:40:02;;;;;;;40.67;29.40;;;16.90;99.90;;;;;;5012711;28;20717;-66
2021/07/11 04:42:28;;;;;;;35.30;28.63;;;17.00;99.90;;;;;;5012503;28;20814;-67
2021/07/11 04:45:01;;;;;;;39.33;27.63;;;17.00;99.90;;;;;;4992601;28;20822;-66
2021/07/11 04:47:28;;;;;;;41.90;28.30;;;17.00;99.90;;;;;;4992983;28;20458;-67
2021/07/11 04:49:56;;;;;;;36.30;30.00;;;17.00;99.90;;;;;;4992967;28;20454;-66
2021/07/11 04:52:23;;;;;;;35.13;28.90;;;17.00;99.90;;;;;;4992834;28;20454;-66
2021/07/11 04:54:50;;;;;;;41.07;29.73;;;17.00;99.90;;;;;;4996517;28;20477;-67
2021/07/11 04:57:17;;;;;;;37.80;29.57;;;17.10;99.90;;;;;;5012466;28;20449;-66
2021/07/11 04:59:44;;;;;;;39.60;27.80;;;17.10;99.90;;;;;;5009063;28;20815;-66
2021/07/11 05:02:11;;;;;;;34.30;28.93;;;17.10;99.90;;;;;;5012230;28;20449;-66
2021/07/11 05:04:37;;;;;;;36.07;29.00;;;17.20;99.90;;;;;;5011504;28;20442;-66
2021/07/11 05:07:06;;;;;;;37.03;28.33;;;17.20;99.90;;;;;;5012328;28;20456;-67
2021/07/11 05:09:33;;;;;;;31.93;28.57;;;17.30;99.90;;;;;;5011848;28;20449;-67
2021/07/11 05:12:00;;;;;;;34.40;28.27;;;17.40;99.90;;;;;;5011950;28;20798;-66
2021/07/11 05:14:27;;;;;;;42.67;29.30;;;17.40;99.90;;;;;;5012068;28;20508;-66
2021/07/11 05:16:53;;;;;;;34.33;27.90;;;17.40;99.90;;;;;;4993581;28;20490;-66
2021/07/11 05:19:20;;;;;;;32.40;28.60;;;17.40;99.90;;;;;;4992860;28;20447;-66
2021/07/11 05:21:47;;;;;;;36.90;30.50;;;17.50;99.90;;;;;;4992344;28;20454;-66
2021/07/11 05:24:15;;;;;;;40.40;31.90;;;17.50;99.90;;;;;;4992598;28;20446;-66
2021/07/11 05:26:42;;;;;;;44.93;32.37;;;17.70;99.90;;;;;;4992282;28;21031;-66
2021/07/11 05:29:09;;;;;;;37.73;31.67;;;17.70;99.90;;;;;;4992371;28;20470;-66
2021/07/11 05:31:36;;;;;;;34.70;29.37;;;17.70;99.90;;;;;;4992209;28;20439;-66
2021/07/11 05:34:02;;;;;;;43.93;31.93;;;17.70;99.90;;;;;;5000231;28;22367;-68
2021/07/11 05:36:29;;;;;;;42.00;31.73;;;17.70;99.90;;;;;;5011756;28;20466;-66
2021/07/11 05:38:56;;;;;;;41.03;31.57;;;17.80;99.90;;;;;;5011871;28;20496;-66
2021/07/11 05:41:24;;;;;;;51.97;37.03;;;17.90;99.90;;;;;;5011827;28;20932;-66
2021/07/11 05:43:51;;;;;;;47.97;35.47;;;17.90;99.90;;;;;;5011676;28;20448;-66
2021/07/11 05:46:18;;;;;;;43.20;33.30;;;18.00;99.90;;;;;;5011161;28;20781;-67
2021/07/11 05:48:44;;;;;;;40.27;30.87;;;18.00;99.90;;;;;;5011626;28;20450;-66
2021/07/11 05:51:11;;;;;;;49.00;33.50;;;18.10;99.90;;;;;;5011592;28;20812;-66
2021/07/11 05:53:38;;;;;;;39.80;31.97;;;18.30;99.90;;;;;;5011728;28;20786;-66
2021/07/11 05:56:05;;;;;;;36.70;32.97;;;18.40;99.90;;;;;;5013346;28;20512;-66
2021/07/11 05:58:33;;;;;;;38.77;33.43;;;18.40;99.90;;;;;;5015704;28;20442;-66
2021/07/11 06:01:00;;;;;;;52.00;34.60;;;18.40;99.90;;;;;;5008540;28;20451;-66
2021/07/11 06:03:26;;;;;;;36.77;31.97;;;18.30;99.90;;;;;;4996021;28;20443;-66
2021/07/11 06:05:53;;;;;;;37.17;33.07;;;18.30;99.90;;;;;;4995857;28;20561;-66
2021/07/11 06:08:20;;;;;;;38.80;34.33;;;18.40;99.90;;;;;;4996038;28;20505;-66
2021/07/11 06:10:47;;;;;;;43.87;35.03;;;18.30;99.90;;;;;;5003511;28;20454;-66
2021/07/11 06:13:14;;;;;;;40.70;32.77;;;18.30;99.90;;;;;;5015655;28;20442;-66
2021/07/11 06:15:42;;;;;;;40.10;34.13;;;18.40;99.90;;;;;;5015698;28;20489;-66
2021/07/11 06:18:09;;;;;;;42.33;34.50;;;18.40;99.90;;;;;;5015538;28;20449;-67
2021/07/11 06:20:35;;;;;;;46.40;36.17;;;18.40;99.90;;;;;;5015302;28;20449;-66
2021/07/11 06:23:03;;;;;;;38.87;33.93;;;18.40;99.90;;;;;;5003472;28;20454;-67
2021/07/11 06:25:30;;;;;;;37.27;33.23;;;18.40;99.90;;;;;;5011728;28;20484;-66
2021/07/11 06:27:57;;;;;;;44.40;37.83;;;18.50;99.90;;;;;;5015159;28;20448;-66
2021/07/11 06:30:24;;;;;;;41.80;36.50;;;18.40;99.90;;;;;;5015277;28;20442;-65
2021/07/11 06:32:52;;;;;;;43.20;37.40;;;18.40;99.90;;;;;;5014810;28;20512;-66
2021/07/11 06:35:20;;;;;;;51.10;38.83;;;18.40;99.90;;;;;;5000145;28;20494;-68
2021/07/11 06:37:47;;;;;;;42.10;37.50;;;18.40;99.90;;;;;;4995304;28;20959;-65
2021/07/11 06:40:15;;;;;;;47.53;38.60;;;18.40;99.90;;;;;;4998267;28;20469;-66
2021/07/11 06:42:42;;;;;;;52.27;40.27;;;18.50;99.90;;;;;;5010724;28;20557;-66
2021/07/11 06:45:11;;;;;;;48.23;39.03;;;18.50;99.90;;;;;;5012664;28;20470;-66
2021/07/11 06:47:39;;;;;;;45.47;38.60;;;18.60;99.90;;;;;;4995403;28;20933;-66
2021/07/11 06:50:10;;;;;;;45.93;39.37;;;18.60;99.90;;;;;;4995081;28;20936;-65
2021/07/11 06:52:38;;;;;;;50.83;39.53;;;18.60;99.90;;;;;;5001875;28;20541;-67
2021/07/11 06:55:06;;;;;;;53.30;38.83;;;18.60;99.90;;;;;;5014465;28;20486;-66
2021/07/11 06:57:33;;;;;;;51.03;37.70;;;18.60;99.90;;;;;;5014649;28;20990;-66
2021/07/11 07:00:00;;;;;;;55.47;41.47;;;18.60;99.90;;;;;;5014614;28;20528;-67
2021/07/11 07:02:27;;;;;;;54.30;39.90;;;18.60;99.90;;;;;;5014279;28;20446;-66
2021/07/11 07:04:54;;;;;;;49.80;39.73;;;18.70;99.90;;;;;;5005727;28;20467;-67
2021/07/11 07:07:22;;;;;;;54.20;42.73;;;18.60;99.90;;;;;;4994089;28;20483;-66
2021/07/11 07:09:49;;;;;;;59.33;42.93;;;18.60;99.90;;;;;;4995779;28;20907;-66
2021/07/11 07:12:15;;;;;;;51.13;43.70;;;18.60;99.90;;;;;;5009872;28;20457;-67
2021/07/11 07:14:42;;;;;;;53.00;43.07;;;18.70;99.90;;;;;;5014290;28;20485;-67
2021/07/11 07:17:09;;;;;;;47.70;39.90;;;18.70;99.90;;;;;;5012565;28;20446;-67
2021/07/11 07:19:35;;;;;;;45.03;40.00;;;18.60;99.90;;;;;;5014080;28;20454;-66
2021/07/11 07:22:02;;;;;;;51.50;41.70;;;18.60;99.90;;;;;;5013873;28;20446;-66
2021/07/11 07:24:30;;;;;;;52.13;41.13;;;18.60;99.90;;;;;;5013953;28;20445;-66
2021/07/11 07:26:57;;;;;;;52.80;40.10;;;18.50;99.90;;;;;;5004426;28;20975;-66
2021/07/11 07:29:24;;;;;;;48.30;40.50;;;18.60;99.90;;;;;;4994385;28;20474;-66
2021/07/11 07:31:50;;;;;;;53.43;40.40;;;18.70;99.90;;;;;;4994226;28;20802;-66
2021/07/11 07:34:19;;;;;;;48.70;38.00;;;18.90;99.90;;;;;;4994323;28;20470;-66
2021/07/11 07:36:46;;;;;;;51.40;40.50;;;19.00;99.90;;;;;;4994373;28;20552;-66
2021/07/11 07:39:13;;;;;;;43.00;37.50;;;19.20;99.90;;;;;;4995250;28;20454;-66
2021/07/11 07:41:41;;;;;;;43.43;38.90;;;19.30;99.90;;;;;;4994003;28;20453;-66
2021/07/11 07:44:07;;;;;;;50.13;40.70;;;19.30;99.90;;;;;;4994216;28;20447;-67
2021/07/11 07:46:34;;;;;;;42.17;37.67;;;19.30;99.90;;;;;;4994073;28;20470;-66
2021/07/11 07:49:01;;;;;;;42.47;38.00;;;19.20;99.90;;;;;;4994108;28;20451;-66
2021/07/11 07:51:27;;;;;;;44.70;38.63;;;19.30;99.90;;;;;;5007825;28;20918;-67
2021/07/11 07:53:54;;;;;;;38.80;35.00;;;19.20;99.90;;;;;;5013632;28;20446;-66
2021/07/11 07:56:21;;;;;;;41.53;37.23;;;19.00;99.90;;;;;;5013431;28;20485;-64
2021/07/11 07:58:49;;;;;;;38.57;34.77;;;18.90;99.90;;;;;;5013708;28;20761;-66
2021/07/11 08:01:16;;;;;;;40.40;36.30;;;18.80;99.90;;;;;;5013540;28;20517;-66
2021/07/11 08:03:42;;;;;;;39.47;35.57;;;18.70;99.90;;;;;;4995030;28;20844;-66
2021/07/11 08:06:10;;;;;;;38.80;35.00;;;18.60;99.90;;;;;;4991732;28;20462;-66
2021/07/11 08:08:36;;;;;;;36.53;33.07;;;18.60;99.90;;;;;;4992404;28;20451;-66
2021/07/11 08:11:06;;;;;;;39.17;34.93;;;18.60;99.90;;;;;;4992593;28;20454;-66
2021/07/11 08:13:32;;;;;;;37.33;33.60;;;18.70;99.90;;;;;;4992894;28;20451;-66
2021/07/11 08:16:01;;;;;;;37.60;33.90;;;18.80;99.90;;;;;;5011753;28;20497;-65
2021/07/11 08:18:27;;;;;;;38.87;34.87;;;19.00;99.90;;;;;;5010992;28;20457;-66
2021/07/11 08:20:54;;;;;;;38.90;35.00;;;19.00;99.90;;;;;;4992675;28;21037;-65
2021/07/11 08:23:21;;;;;;;37.13;33.70;;;19.10;99.90;;;;;;4992744;28;20451;-66
2021/07/11 08:25:48;;;;;;;40.50;36.07;;;19.30;99.90;;;;;;4995248;28;20470;-66
2021/07/11 08:28:14;;;;;;;37.43;33.93;;;19.50;99.90;;;;;;5005150;28;20447;-66
2021/07/11 08:30:41;;;;;;;40.80;36.60;;;19.60;99.90;;;;;;4997843;28;20454;-67
2021/07/11 08:33:09;;;;;;;37.90;34.30;;;19.70;99.90;;;;;;4997153;28;20450;-65
2021/07/11 08:35:40;;;;;;;37.80;34.30;;;19.80;99.90;;;;;;5010616;28;20533;-66
2021/07/11 08:38:06;;;;;;;38.83;35.00;;;20.30;99.90;;;;;;5005920;28;20457;-66
2021/07/11 08:40:35;;;;;;;35.10;32.00;;;20.80;99.90;;;;;;5001372;28;20445;-66
2021/07/11 08:43:06;;;;;;;35.33;32.43;;;21.40;99.90;;;;;;5005318;28;20519;-66
2021/07/11 08:45:33;;;;;;;37.30;34.10;;;21.70;99.90;;;;;;5006264;28;20577;-67
2021/07/11 08:48:00;;;;;;;37.77;34.53;;;21.80;99.90;;;;;;5002860;28;20450;-66
2021/07/11 08:50:32;;;;;;;41.17;37.73;;;21.70;99.90;;;;;;5001741;28;20483;-66
2021/07/11 08:52:59;;;;;;;40.33;36.90;;;21.80;99.90;;;;;;5003967;28;20453;-66
2021/07/11 08:55:27;;;;;;;38.03;34.80;;;22.10;99.90;;;;;;5002019;28;20477;-67
2021/07/11 08:57:55;;;;;;;39.33;36.10;;;22.40;99.90;;;;;;5000482;28;20465;-66
2021/07/11 09:00:24;;;;;;;37.37;33.97;;;22.80;99.90;;;;;;5001229;28;20458;-67
2021/07/11 09:02:51;;;;;;;39.80;36.33;;;23.00;99.90;;;;;;5005706;28;20454;-66
2021/07/11 09:05:22;;;;;;;39.27;35.93;;;22.80;99.90;;;;;;5002943;28;20475;-66
2021/07/11 09:07:59;;;;;;;38.37;35.30;;;22.60;99.90;;;;;;4995666;28;21015;-66
2021/07/11 09:10:34;;;;;;;39.80;36.50;;;22.40;99.90;;;;;;5000175;28;20478;-66
2021/07/11 09:13:01;;;;;;;40.47;37.23;;;22.10;99.90;;;;;;4999706;28;20838;-67
2021/07/11 09:15:33;;;;;;;39.23;35.87;;;22.10;99.90;;;;;;5009279;28;21043;-65
2021/07/11 09:17:59;;;;;;;41.90;37.93;;;22.30;99.90;;;;;;5000477;28;20451;-67
2021/07/11 09:20:27;;;;;;;38.70;35.70;;;22.60;99.90;;;;;;5001316;28;20936;-66
2021/07/11 09:23:00;;;;;;;38.90;35.60;;;22.80;99.90;;;;;;4998748;28;20964;-66
2021/07/11 09:25:27;;;;;;;38.93;35.73;;;23.20;99.90;;;;;;4996769;28;20474;-67
2021/07/11 09:27:54;;;;;;;39.53;35.63;;;23.00;99.90;;;;;;5012019;28;20443;-66
2021/07/11 09:30:21;;;;;;;36.87;33.83;;;23.00;99.90;;;;;;5011491;28;20944;-66
2021/07/11 09:32:52;;;;;;;34.83;32.13;;;23.20;99.90;;;;;;5011579;28;20446;-67
2021/07/11 09:35:21;;;;;;;37.47;34.40;;;23.70;99.90;;;;;;5008694;28;20485;-67
2021/07/11 09:37:49;;;;;;;37.93;34.87;;;24.00;99.90;;;;;;4992352;28;20458;-64
2021/07/11 09:40:18;;;;;;;34.10;31.60;;;24.30;99.90;;;;;;5000259;28;20453;-65
2021/07/11 09:42:47;;;;;;;34.63;32.20;;;24.90;99.90;;;;;;4991879;28;20816;-67
2021/07/11 09:45:18;;;;;;;37.87;35.07;;;25.60;99.90;;;;;;4991945;28;20474;-66
2021/07/11 09:47:46;;;;;;;36.27;33.57;;;24.90;99.90;;;;;;5011091;28;20454;-67
2021/07/11 09:50:14;;;;;;;36.30;33.43;;;24.20;99.90;;;;;;4992790;28;20443;-65
2021/07/11 09:52:42;;;;;;;36.50;33.70;;;23.60;99.90;;;;;;4991967;28;20999;-66
2021/07/11 09:55:12;;;;;;;35.10;32.10;;;22.90;99.90;;;;;;4999275;28;20500;-66
2021/07/11 09:57:42;;;;;;;35.53;32.90;;;23.00;99.90;;;;;;5009655;28;20451;-65
2021/07/11 10:00:13;;;;;;;35.93;33.23;;;23.20;99.90;;;;;;5004840;28;20453;-66
2021/07/11 10:02:41;;;;;;;32.40;30.03;;;23.80;99.90;;;;;;5009403;28;20450;-67
2021/07/11 10:05:09;;;;;;;34.25;31.65;;;24.40;99.90;;;;;;5011081;28;20840;-65
2021/07/11 10:07:36;;;;;;;35.87;33.17;;;24.40;99.90;;;;;;5011118;28;20580;-67
2021/07/11 10:10:05;;;;;;;36.50;33.70;;;24.20;99.90;;;;;;4995734;28;20824;-65
2021/07/11 10:12:32;;;;;;;33.27;30.87;;;24.00;99.90;;;;;;4991807;28;20458;-66
2021/07/11 10:15:01;;;;;;;36.03;33.42;;;24.20;99.90;;;;;;5011262;28;20450;-64
2021/07/11 10:17:28;;;;;;;35.80;33.20;;;23.90;99.90;;;;;;5011731;28;20727;-65
2021/07/11 10:19:56;;;;;;;33.63;31.20;;;23.70;99.90;;;;;;4999572;28;20504;-65
2021/07/11 10:22:23;;;;;;;34.63;32.00;;;23.90;99.90;;;;;;4992762;28;20454;-66
2021/07/11 10:24:51;;;;;;;31.90;29.50;;;24.30;99.90;;;;;;5011303;28;20488;-67
2021/07/11 10:27:24;;;;;;;32.17;29.83;;;24.50;99.90;;;;;;5011343;28;20857;-68
2021/07/11 10:29:52;;;;;;;32.20;29.57;;;25.00;99.90;;;;;;5010905;28;20450;-69
2021/07/11 10:32:28;;;;;;;32.80;30.50;;;25.00;99.90;;;;;;5011062;28;20457;-68
2021/07/11 10:35:07;;;;;;;32.40;30.23;;;24.70;98.70;;;;;;4999234;28;20987;-67
2021/07/11 10:37:42;;;;;;;31.17;28.93;;;24.90;99.00;;;;;;4992610;28;20483;-67
2021/07/11 10:40:11;;;;;;;30.53;28.30;;;25.00;99.60;;;;;;4992750;28;20966;-68
2021/07/11 10:42:38;;;;;;;29.43;27.63;;;25.50;98.40;;;;;;4992490;28;20454;-68
2021/07/11 10:45:07;;;;;;;31.00;28.90;;;26.00;95.70;;;;;;4995101;28;20475;-68
2021/07/11 10:47:35;;;;;;;31.10;29.20;;;26.10;94.10;;;;;;4998612;28;20442;-66
2021/07/11 10:50:02;;;;;;;29.40;27.60;;;26.10;93.60;;;;;;5002404;28;20455;-67
2021/07/11 10:52:29;;;;;;;28.93;27.23;;;26.50;93.60;;;;;;5006409;28;20446;-68
2021/07/11 10:54:57;;;;;;;29.23;27.57;;;26.50;92.20;;;;;;4995093;28;20469;-67
2021/07/11 10:57:30;;;;;;;28.50;26.90;;;26.90;91.40;;;;;;5010798;28;20488;-68
2021/07/11 11:00:08;;;;;;;29.33;27.60;;;27.10;91.90;;;;;;4995291;28;21159;-68
2021/07/11 11:02:36;;;;;;;26.70;25.30;;;26.90;88.10;;;;;;4993956;28;20461;-68
2021/07/11 11:05:10;;;;;;;24.87;23.50;;;26.80;86.30;;;;;;4994234;28;20498;-69
2021/07/11 11:07:48;;;;;;;25.40;23.90;;;26.50;85.50;;;;;;4994785;28;20450;-69
2021/07/11 11:10:33;;;;;;;23.70;22.30;;;26.10;85.40;;;;;;4994701;28;20458;-67
2021/07/11 11:13:05;;;;;;;24.10;22.87;;;26.40;89.30;;;;;;4994785;28;20809;-69
2021/07/11 11:15:38;;;;;;;25.30;24.00;;;26.20;87.20;;;;;;4994556;28;20463;-68
2021/07/11 11:18:14;;;;;;;25.27;23.97;;;26.20;87.40;;;;;;4994937;28;20442;-67
2021/07/11 11:20:41;;;;;;;23.53;22.37;;;27.10;82.70;;;;;;4994695;28;20438;-68
2021/07/11 11:23:10;;;;;;;21.20;20.30;;;27.80;82.10;;;;;;4994287;28;20454;-69
2021/07/11 11:25:37;;;;;;;22.37;21.13;;;27.50;73.80;;;;;;4994498;28;20565;-69
2021/07/11 11:28:04;;;;;;;22.60;21.60;;;27.00;72.70;;;;;;4994395;28;20454;-68
2021/07/11 11:30:30;;;;;;;20.93;20.03;;;26.90;73.30;;;;;;4994365;28;20450;-68
2021/07/11 11:32:58;;;;;;;21.47;20.47;;;27.90;70.80;;;;;;4994196;28;20811;-69
2021/07/11 11:35:28;;;;;;;21.27;20.20;;;28.60;67.90;;;;;;4994365;28;20469;-70
2021/07/11 11:37:56;;;;;;;21.23;20.40;;;29.60;60.80;;;;;;4994352;28;20805;-70
2021/07/11 11:40:25;;;;;;;21.23;20.43;;;30.60;58.50;;;;;;4994239;28;20443;-69
2021/07/11 11:42:54;;;;;;;21.77;20.87;;;30.80;54.90;;;;;;4993995;28;20451;-69
2021/07/11 11:45:23;;;;;;;20.73;19.83;;;30.80;53.50;;;;;;4994065;28;21062;-68
2021/07/11 11:48:02;;;;;;;21.50;20.60;;;31.00;53.70;;;;;;4994096;28;20450;-68
2021/07/11 11:50:32;;;;;;;19.40;18.70;;;31.30;51.90;;;;;;4993974;28;20932;-68
2021/07/11 11:53:08;;;;;;;19.03;18.20;;;31.40;50.40;;;;;;4993293;28;20449;-68
2021/07/11 11:55:36;;;;;;;21.90;21.00;;;32.30;50.30;;;;;;4993988;28;20832;-69
2021/07/11 11:58:04;;;;;;;19.25;18.63;;;35.50;48.30;;;;;;4993761;28;20478;-69
2021/07/11 12:00:31;;;;;;;19.63;18.98;;;38.70;41.50;;;;;;4993879;28;20203;-70
2021/07/11 12:03:02;;;;;;;19.75;19.05;;;41.80;36.40;;;;;;4993597;28;20688;-69
2021/07/11 12:05:33;;;;;;;19.48;18.88;;;41.70;32.40;;;;;;4993522;28;20223;-70
2021/07/11 12:08:00;;;;;;;20.50;19.77;;;42.70;31.50;;;;;;4993779;28;20206;-69
2021/07/11 12:10:28;;;;;;;19.63;18.90;;;42.40;31.00;;;;;;4993655;28;20211;-70
2021/07/11 12:12:56;;;;;;;21.45;20.75;;;42.40;30.00;;;;;;4993455;28;20588;-70
2021/07/11 12:15:34;;;;;;;21.48;20.77;;;43.00;29.70;;;;;;4993432;28;20219;-69
2021/07/11 12:18:02;;;;;;;21.05;20.35;;;44.20;29.60;;;;;;4993497;28;20231;-69
2021/07/11 12:20:31;;;;;;;20.63;19.73;;;41.20;28.30;;;;;;4993462;28;20242;-69
2021/07/11 12:22:57;;;;;;;20.30;19.58;;;37.20;33.30;;;;;;4993095;28;20203;-69
2021/07/11 12:25:27;;;;;;;19.40;18.60;;;35.20;36.90;;;;;;4993710;28;20643;-69
2021/07/11 12:28:02;;;;;;;19.57;18.90;;;34.10;39.20;;;;;;4993205;28;20207;-69
2021/07/11 12:30:41;;;;;;;18.90;18.30;;;32.80;41.20;;;;;;4993285;28;20213;-68
2021/07/11 12:33:09;;;;;;;18.80;18.10;;;31.50;43.50;;;;;;4992951;28;20827;-69
2021/07/11 12:35:45;;;;;;;18.73;18.03;;;32.30;44.40;;;;;;4993053;28;20473;-69